createdAt,value
2018-02-14T00:00:52.377Z,66.73
2018-02-14T00:01:52.387Z,66.72
2018-02-14T00:02:52.415Z,66.96
2018-02-14T00:03:52.419Z,66.92
2018-02-14T00:04:52.386Z,67.23
2018-02-14T00:05:52.378Z,67.49
2018-02-14T00:06:52.386Z,67.11
2018-02-14T00:07:52.408Z,67.17
2018-02-14T00:08:52.433Z,67.29
2018-02-14T00:09:52.404Z,67.4
2018-02-14T00:10:52.403Z,67.36
2018-02-14T00:11:52.406Z,67.38
2018-02-14T00:12:52.408Z,67.22
2018-02-14T00:13:52.437Z,67.53
2018-02-14T00:14:52.412Z,67.54
2018-02-14T00:15:52.416Z,67.52
2018-02-14T00:16:52.418Z,67.1
2018-02-14T00:17:52.424Z,67.27
2018-02-14T00:18:52.804Z,67.32
2018-02-14T00:19:52.417Z,67.23
2018-02-14T00:20:52.430Z,67.39
2018-02-14T00:21:52.434Z,67.53
2018-02-14T00:22:52.424Z,67.49
2018-02-14T00:23:52.452Z,67.77
2018-02-14T00:24:52.467Z,67.73
2018-02-14T00:25:52.436Z,67.61
2018-02-14T00:26:52.441Z,67.52
2018-02-14T00:27:52.436Z,67.28
2018-02-14T00:28:52.462Z,67.27
2018-02-14T00:29:52.443Z,67.23
2018-02-14T00:30:52.444Z,67.17
2018-02-14T00:31:52.450Z,67.35
2018-02-14T00:32:52.464Z,67.54
2018-02-14T00:33:52.483Z,67.58
2018-02-14T00:34:52.473Z,67.6
2018-02-14T00:35:52.454Z,67.37
2018-02-14T00:36:52.466Z,67.75
2018-02-14T00:37:52.471Z,67.46
2018-02-14T00:38:52.493Z,67.03
2018-02-14T00:39:52.470Z,67.28
2018-02-14T00:40:52.470Z,67.66
2018-02-14T00:41:52.483Z,67.57
2018-02-14T00:42:52.495Z,67.33
2018-02-14T00:43:52.472Z,67.3
2018-02-14T00:44:52.502Z,67.29
2018-02-14T00:45:52.467Z,67.59
2018-02-14T00:46:52.474Z,67.67
2018-02-14T00:47:52.476Z,67.69
2018-02-14T00:48:52.496Z,67.72
2018-02-14T00:49:52.470Z,67.42
2018-02-14T00:50:52.474Z,67.56
2018-02-14T00:51:52.479Z,67.84
2018-02-14T00:52:52.481Z,67.78
2018-02-14T00:53:52.509Z,68.02
2018-02-14T00:54:52.494Z,67.87
2018-02-14T00:55:52.495Z,67.64
2018-02-14T00:56:52.502Z,67.56
2018-02-14T00:57:52.502Z,67.65
2018-02-14T00:58:52.500Z,67.88
2018-02-14T00:59:52.510Z,67.69
2018-02-14T01:00:52.515Z,67.74
2018-02-14T01:01:52.517Z,68.24
2018-02-14T01:02:52.518Z,68.2
2018-02-14T01:03:52.533Z,67.75
2018-02-14T01:04:52.520Z,67.89
2018-02-14T01:05:52.529Z,68.12
2018-02-14T01:06:52.521Z,67.87
2018-02-14T01:07:52.527Z,67.97
2018-02-14T01:08:52.570Z,67.92
2018-02-14T01:09:52.529Z,67.97
2018-02-14T01:10:52.528Z,68
2018-02-14T01:11:52.531Z,68.24
2018-02-14T01:12:52.537Z,67.89
2018-02-14T01:13:52.560Z,68.03
2018-02-14T01:14:52.567Z,68.04
2018-02-14T01:15:52.545Z,67.85
2018-02-14T01:16:52.549Z,68.16
2018-02-14T01:17:52.665Z,68.45
2018-02-14T01:18:52.553Z,68.21
2018-02-14T01:19:52.560Z,68.01
2018-02-14T01:20:52.564Z,68.19
2018-02-14T01:21:52.571Z,68.45
2018-02-14T01:22:52.588Z,68.18
2018-02-14T01:23:52.592Z,68.46
2018-02-14T01:24:52.590Z,68.19
2018-02-14T01:25:52.569Z,68.25
2018-02-14T01:26:52.576Z,68.18
2018-02-14T01:27:52.565Z,68.3
2018-02-14T01:28:52.590Z,68.39
2018-02-14T01:29:52.577Z,68.2
2018-02-14T01:30:52.601Z,68.4
2018-02-14T01:31:52.575Z,68.3
2018-02-14T01:32:52.573Z,68.35
2018-02-14T01:33:52.576Z,68.53
2018-02-14T01:34:52.927Z,68.23
2018-02-14T01:35:52.585Z,68.48
2018-02-14T01:36:52.592Z,68.4
2018-02-14T01:37:52.596Z,68.67
2018-02-14T01:38:52.596Z,68.41
2018-02-14T01:39:52.617Z,68.37
2018-02-14T01:40:52.877Z,68.65
2018-02-14T01:41:52.605Z,68.49
2018-02-14T01:42:52.612Z,68.33
2018-02-14T01:43:52.618Z,68.12
2018-02-14T01:44:52.621Z,68.5
2018-02-14T01:45:52.639Z,68.33
2018-02-14T01:46:52.750Z,68.48
2018-02-14T01:47:52.624Z,68.47
2018-02-14T01:48:52.622Z,68.36
2018-02-14T01:49:52.631Z,68.53
2018-02-14T01:50:52.638Z,68.69
2018-02-14T01:51:52.655Z,68.3
2018-02-14T01:52:52.675Z,68.52
2018-02-14T01:53:52.644Z,68.61
2018-02-14T01:54:52.643Z,68.76
2018-02-14T01:55:52.646Z,68.53
2018-02-14T01:56:52.652Z,68.44
2018-02-14T01:57:52.662Z,68.71
2018-02-14T01:58:52.665Z,68.75
2018-02-14T01:59:52.646Z,68.71
2018-02-14T02:00:52.647Z,68.77
2018-02-14T02:01:52.650Z,68.93
2018-02-14T02:02:52.662Z,68.46
2018-02-14T02:03:52.696Z,68.8
2018-02-14T02:04:52.673Z,68.71
2018-02-14T02:05:52.675Z,68.52
2018-02-14T02:06:52.672Z,68.89
2018-02-14T02:07:52.673Z,68.75
2018-02-14T02:08:52.807Z,68.68
2018-02-14T02:09:52.691Z,68.97
2018-02-14T02:10:52.687Z,68.79
2018-02-14T02:11:52.694Z,68.98
2018-02-14T02:12:52.688Z,68.78
2018-02-14T02:13:52.722Z,68.4
2018-02-14T02:14:52.700Z,68.62
2018-02-14T02:15:52.707Z,68.61
2018-02-14T02:16:52.712Z,68.67
2018-02-14T02:17:52.718Z,68.86
2018-02-14T02:18:52.724Z,68.86
2018-02-14T02:19:52.853Z,68.88
2018-02-14T02:20:52.729Z,69.14
2018-02-14T02:21:52.721Z,68.89
2018-02-14T02:22:52.739Z,68.88
2018-02-14T02:23:52.730Z,68.87
2018-02-14T02:24:52.763Z,68.73
2018-02-14T02:25:52.757Z,68.69
2018-02-14T02:26:52.757Z,68.9
2018-02-14T02:27:52.752Z,68.76
2018-02-14T02:28:52.755Z,68.83
2018-02-14T02:29:52.759Z,68.84
2018-02-14T02:30:52.791Z,68.64
2018-02-14T02:31:52.761Z,68.78
2018-02-14T02:32:52.761Z,68.67
2018-02-14T02:33:52.767Z,68.6
2018-02-14T02:34:52.778Z,68.86
2018-02-14T02:35:52.944Z,68.64
2018-02-14T02:36:52.805Z,68.78
2018-02-14T02:37:52.782Z,68.8
2018-02-14T02:38:52.786Z,68.92
2018-02-14T02:39:52.787Z,68.77
2018-02-14T02:40:52.814Z,69.07
2018-02-14T02:41:52.787Z,68.84
2018-02-14T02:42:52.786Z,68.89
2018-02-14T02:43:52.790Z,69.14
2018-02-14T02:44:52.795Z,68.87
2018-02-14T02:45:52.816Z,68.82
2018-02-14T02:46:52.824Z,68.77
2018-02-14T02:47:52.802Z,68.81
2018-02-14T02:48:52.796Z,68.92
2018-02-14T02:49:52.802Z,68.98
2018-02-14T02:50:52.837Z,69.29
2018-02-14T02:51:52.838Z,68.97
2018-02-14T02:52:52.825Z,68.92
2018-02-14T02:53:52.829Z,68.87
2018-02-14T02:54:52.839Z,69.19
2018-02-14T02:55:52.831Z,69.35
2018-02-14T02:56:52.824Z,69.25
2018-02-14T02:57:52.832Z,68.88
2018-02-14T02:58:52.830Z,68.83
2018-02-14T02:59:52.830Z,69.26
2018-02-14T03:00:52.831Z,69.37
2018-02-14T03:01:53.122Z,69.32
2018-02-14T03:02:52.848Z,69.12
2018-02-14T03:03:52.841Z,69.21
2018-02-14T03:04:52.848Z,69.5
2018-02-14T03:05:52.857Z,69.41
2018-02-14T03:06:52.925Z,69.4
2018-02-14T03:07:52.863Z,69.11
2018-02-14T03:08:52.854Z,69.23
2018-02-14T03:09:52.880Z,69.48
2018-02-14T03:10:52.861Z,69.37
2018-02-14T03:11:52.868Z,69.36
2018-02-14T03:12:52.869Z,69.42
2018-02-14T03:13:52.876Z,69.11
2018-02-14T03:14:52.891Z,69.45
2018-02-14T03:15:52.875Z,69.07
2018-02-14T03:16:52.880Z,69.54
2018-02-14T03:17:52.887Z,69.39
2018-02-14T03:18:52.893Z,69.39
2018-02-14T03:19:52.921Z,69.58
2018-02-14T03:20:52.890Z,69.35
2018-02-14T03:21:52.901Z,69.49
2018-02-14T03:22:52.900Z,69.39
2018-02-14T03:23:52.900Z,69.58
2018-02-14T03:24:52.922Z,69.6
2018-02-14T03:25:52.929Z,69.54
2018-02-14T03:26:52.905Z,69.62
2018-02-14T03:27:52.908Z,69.72
2018-02-14T03:28:52.915Z,69.62
2018-02-14T03:29:52.925Z,69.41
2018-02-14T03:30:52.945Z,69.58
2018-02-14T03:31:52.914Z,69.98
2018-02-14T03:32:52.923Z,69.95
2018-02-14T03:33:52.928Z,69.7
2018-02-14T03:34:52.927Z,69.85
2018-02-14T03:35:52.955Z,69.8
2018-02-14T03:36:52.935Z,70.12
2018-02-14T03:37:52.946Z,70.32
2018-02-14T03:38:52.945Z,70.04
2018-02-14T03:39:52.944Z,69.96
2018-02-14T03:40:52.971Z,70.25
2018-02-14T03:41:52.971Z,70.19
2018-02-14T03:42:52.961Z,70.23
2018-02-14T03:43:52.967Z,70.28
2018-02-14T03:44:52.966Z,70.19
2018-02-14T03:45:52.971Z,70.07
2018-02-14T03:46:52.994Z,70.42
2018-02-14T03:47:53.000Z,69.99
2018-02-14T03:48:52.990Z,70.33
2018-02-14T03:49:52.988Z,70.09
2018-02-14T03:50:52.989Z,69.96
2018-02-14T03:51:52.985Z,69.85
2018-02-14T03:52:52.984Z,69.83
2018-02-14T03:53:52.995Z,69.81
2018-02-14T03:54:52.990Z,70.04
2018-02-14T03:55:53.001Z,69.84
2018-02-14T03:56:53.024Z,70.01
2018-02-14T03:57:53.003Z,69.92
2018-02-14T03:58:53.004Z,70.07
2018-02-14T03:59:53.004Z,70.1
2018-02-14T04:00:52.999Z,70.32
2018-02-14T04:01:53.034Z,70.27
2018-02-14T04:02:53.005Z,70.18
2018-02-14T04:03:53.009Z,70.49
2018-02-14T04:04:53.014Z,70.39
2018-02-14T04:05:53.031Z,70.3
2018-02-14T04:06:53.026Z,70.28
2018-02-14T04:07:53.045Z,70.33
2018-02-14T04:08:53.037Z,70.21
2018-02-14T04:09:53.053Z,70.14
2018-02-14T04:10:53.039Z,70.65
2018-02-14T04:11:53.400Z,70.35
2018-02-14T04:12:53.053Z,70.62
2018-02-14T04:13:53.058Z,70.39
2018-02-14T04:14:53.051Z,70.16
2018-02-14T04:15:53.054Z,70.27
2018-02-14T04:16:53.075Z,70.48
2018-02-14T04:17:53.084Z,70.42
2018-02-14T04:18:53.063Z,70.22
2018-02-14T04:19:53.064Z,70.16
2018-02-14T04:20:53.061Z,70.32
2018-02-14T04:21:53.099Z,70.16
2018-02-14T04:22:53.092Z,70.13
2018-02-14T04:23:53.070Z,70.3
2018-02-14T04:24:53.074Z,70.22
2018-02-14T04:25:53.076Z,70.37
2018-02-14T04:26:53.071Z,70.29
2018-02-14T04:27:53.078Z,70.43
2018-02-14T04:28:53.081Z,70.4
2018-02-14T04:29:53.089Z,70.46
2018-02-14T04:30:53.085Z,70.6
2018-02-14T04:31:53.094Z,70.69
2018-02-14T04:32:53.117Z,70.59
2018-02-14T04:33:53.100Z,70.75
2018-02-14T04:34:53.093Z,70.71
2018-02-14T04:35:53.102Z,70.65
2018-02-14T04:36:53.105Z,70.72
2018-02-14T04:37:53.128Z,70.65
2018-02-14T04:38:53.130Z,70.73
2018-02-14T04:39:53.111Z,70.77
2018-02-14T04:40:53.119Z,70.63
2018-02-14T04:41:53.113Z,70.58
2018-02-14T04:44:53.249Z,70.38
2018-02-14T04:45:53.121Z,70.49
2018-02-14T04:46:53.127Z,70.36
2018-02-14T04:47:53.131Z,70.43
2018-02-14T04:48:53.137Z,70.24
2018-02-14T04:49:53.188Z,70.37
2018-02-14T04:50:53.148Z,70.29
2018-02-14T04:51:53.151Z,70.32
2018-02-14T04:52:53.160Z,70.02
2018-02-14T04:53:53.156Z,70.13
2018-02-14T04:54:53.205Z,70
2018-02-14T04:55:53.163Z,70.17
2018-02-14T04:56:53.164Z,69.88
2018-02-14T04:57:53.199Z,69.93
2018-02-14T04:58:53.172Z,70.07
2018-02-14T04:59:53.174Z,69.95
2018-02-14T05:00:53.207Z,70.1
2018-02-14T05:01:53.187Z,70.06
2018-02-14T05:02:53.192Z,69.9
2018-02-14T05:03:53.192Z,69.91
2018-02-14T05:04:53.200Z,69.85
2018-02-14T05:05:53.220Z,69.83
2018-02-14T05:06:53.237Z,70.09
2018-02-14T05:07:53.324Z,69.97
2018-02-14T05:08:53.272Z,69.84
2018-02-14T05:10:06.258Z,69.83
2018-02-14T05:10:58.425Z,69.72
2018-02-14T05:11:58.231Z,69.7
2018-02-14T05:12:58.232Z,69.92
2018-02-14T05:14:03.237Z,69.6
2018-02-14T05:14:59.352Z,69.69
2018-02-14T05:16:03.270Z,69.69
2018-02-14T05:17:03.232Z,69.68
2018-02-14T05:18:06.151Z,69.73
2018-02-14T05:19:03.236Z,69.76
2018-02-14T05:19:53.262Z,69.74
2018-02-14T05:20:53.253Z,69.61
2018-02-14T05:21:53.272Z,69.6
2018-02-14T05:22:53.249Z,69.75
2018-02-14T05:23:53.250Z,69.72
2018-02-14T05:24:53.261Z,69.88
2018-02-14T05:25:53.263Z,69.8
2018-02-14T05:26:53.294Z,69.87
2018-02-14T05:27:53.269Z,70.12
2018-02-14T05:28:53.273Z,69.83
2018-02-14T05:29:53.276Z,69.89
2018-02-14T05:30:53.739Z,70.07
2018-02-14T05:31:53.304Z,69.79
2018-02-14T05:32:53.317Z,69.69
2018-02-14T05:33:53.297Z,70.14
2018-02-14T05:34:53.304Z,69.95
2018-02-14T05:35:53.311Z,70.09
2018-02-14T05:36:53.301Z,69.87
2018-02-14T05:37:53.322Z,69.66
2018-02-14T05:38:53.330Z,69.68
2018-02-14T05:39:53.305Z,69.64
2018-02-14T05:40:53.314Z,69.7
2018-02-14T05:41:53.320Z,69.94
2018-02-14T05:42:53.330Z,69.7
2018-02-14T05:43:53.325Z,69.64
2018-02-14T05:44:53.334Z,69.79
2018-02-14T05:45:53.342Z,70.01
2018-02-14T05:46:53.345Z,70.09
2018-02-14T05:47:53.348Z,69.8
2018-02-14T05:48:53.347Z,69.69
2018-02-14T05:49:53.345Z,69.84
2018-02-14T05:50:53.343Z,69.9
2018-02-14T05:51:53.344Z,69.77
2018-02-14T05:52:53.351Z,70
2018-02-14T05:53:53.346Z,69.88
2018-02-14T05:54:53.370Z,69.87
2018-02-14T05:55:53.347Z,69.68
2018-02-14T05:56:53.379Z,69.84
2018-02-14T05:57:53.359Z,69.78
2018-02-14T05:58:53.370Z,69.59
2018-02-14T05:59:53.370Z,69.57
2018-02-14T06:00:53.370Z,69.8
2018-02-14T06:01:53.390Z,70.13
2018-02-14T06:02:53.372Z,69.89
2018-02-14T06:03:53.379Z,69.98
2018-02-14T06:04:53.388Z,69.89
2018-02-14T06:05:53.390Z,70.11
2018-02-14T06:06:53.412Z,70.2
2018-02-14T06:07:53.388Z,70.09
2018-02-14T06:08:53.431Z,70.16
2018-02-14T06:09:53.396Z,70.08
2018-02-14T06:10:53.402Z,70.26
2018-02-14T06:11:53.394Z,70.25
2018-02-14T06:12:53.402Z,70.32
2018-02-14T06:13:53.436Z,70.31
2018-02-14T06:14:53.415Z,69.93
2018-02-14T06:15:53.408Z,69.91
2018-02-14T06:16:53.416Z,70.12
2018-02-14T06:17:53.414Z,70.2
2018-02-14T06:18:53.449Z,70.05
2018-02-14T06:19:53.449Z,70.05
2018-02-14T06:20:53.431Z,70.44
2018-02-14T06:21:53.449Z,70.51
2018-02-14T06:22:53.437Z,70.25
2018-02-14T06:23:53.467Z,70.15
2018-02-14T06:24:53.444Z,70.35
2018-02-14T06:25:53.450Z,70.24
2018-02-14T06:26:53.450Z,70.65
2018-02-14T06:27:53.457Z,70.18
2018-02-14T06:28:53.483Z,70.24
2018-02-14T06:29:53.466Z,70.34
2018-02-14T06:30:53.466Z,70.04
2018-02-14T06:31:53.464Z,70.37
2018-02-14T06:32:53.472Z,70.65
2018-02-14T06:33:53.497Z,70.56
2018-02-14T06:34:53.481Z,70.54
2018-02-14T06:35:53.470Z,70.47
2018-02-14T06:36:53.480Z,70.5
2018-02-14T06:37:53.474Z,70.46
2018-02-14T06:38:53.525Z,71.04
2018-02-14T06:39:53.486Z,70.86
2018-02-14T06:40:53.822Z,70.75
2018-02-14T06:41:53.480Z,70.61
2018-02-14T06:42:53.485Z,70.57
2018-02-14T06:43:53.490Z,70.69
2018-02-14T06:44:53.500Z,70.88
2018-02-14T06:45:53.526Z,70.68
2018-02-14T06:46:53.525Z,70.56
2018-02-14T06:47:53.510Z,70.58
2018-02-14T06:48:53.506Z,70.5
2018-02-14T06:49:53.509Z,70.74
2018-02-14T06:50:53.546Z,70.84
2018-02-14T06:51:53.546Z,70.72
2018-02-14T06:52:53.538Z,70.99
2018-02-14T06:53:53.533Z,71.23
2018-02-14T06:54:53.530Z,71.26
2018-02-14T06:55:53.550Z,71.33
2018-02-14T06:56:53.552Z,71.46
2018-02-14T06:57:53.562Z,71.48
2018-02-14T06:58:53.591Z,71.39
2018-02-14T06:59:53.561Z,71.59
2018-02-14T07:00:53.592Z,71.73
2018-02-14T07:01:53.581Z,71.29
2018-02-14T07:02:53.572Z,71.54
2018-02-14T07:03:53.572Z,71.67
2018-02-14T07:04:53.572Z,71.84
2018-02-14T07:05:53.882Z,71.81
2018-02-14T07:06:53.583Z,71.75
2018-02-14T07:07:53.643Z,71.79
2018-02-14T07:08:53.597Z,71.92
2018-02-14T07:09:53.599Z,71.84
2018-02-14T07:10:53.639Z,71.71
2018-02-14T07:11:53.601Z,72.05
2018-02-14T07:12:53.609Z,71.79
2018-02-14T07:13:53.615Z,71.83
2018-02-14T07:14:53.611Z,71.96
2018-02-14T07:15:53.628Z,72.16
2018-02-14T07:16:53.642Z,71.95
2018-02-14T07:17:53.607Z,71.81
2018-02-14T07:18:53.613Z,72.22
2018-02-14T07:19:53.618Z,72.15
2018-02-14T07:20:53.627Z,72.2
2018-02-14T07:21:53.655Z,71.87
2018-02-14T07:22:54.009Z,71.81
2018-02-14T07:23:53.637Z,71.8
2018-02-14T07:24:53.644Z,71.88
2018-02-14T07:25:53.650Z,71.86
2018-02-14T07:26:53.652Z,71.88
2018-02-14T07:27:53.680Z,71.99
2018-02-14T07:28:53.658Z,72.01
2018-02-14T07:29:53.658Z,71.97
2018-02-14T07:30:53.658Z,72.01
2018-02-14T07:31:53.684Z,71.59
2018-02-14T07:32:53.685Z,71.61
2018-02-14T07:33:53.837Z,71.6
2018-02-14T07:34:53.680Z,71.58
2018-02-14T07:35:53.685Z,71.55
2018-02-14T07:36:53.691Z,71.39
2018-02-14T07:37:53.681Z,71.7
2018-02-14T07:38:53.708Z,71.46
2018-02-14T07:39:53.716Z,71.77
2018-02-14T07:40:53.693Z,71.37
2018-02-14T07:41:53.694Z,71.36
2018-02-14T07:42:53.696Z,71.74
2018-02-14T07:43:53.720Z,71.79
2018-02-14T07:44:53.708Z,71.32
2018-02-14T07:45:53.716Z,71.19
2018-02-14T07:46:53.719Z,71.36
2018-02-14T07:47:53.714Z,71.29
2018-02-14T07:48:53.735Z,71.13
2018-02-14T07:49:53.746Z,71.14
2018-02-14T07:50:53.721Z,71.09
2018-02-14T07:51:53.733Z,71.35
2018-02-14T07:52:53.726Z,70.92
2018-02-14T07:53:53.746Z,70.89
2018-02-14T07:56:58.761Z,70.81
2018-02-14T07:57:53.753Z,70.76
2018-02-14T07:58:53.783Z,70.85
2018-02-14T07:59:53.790Z,70.87
2018-02-14T08:00:53.767Z,70.89
2018-02-14T08:01:53.760Z,70.85
2018-02-14T08:02:53.765Z,71.04
2018-02-14T08:03:53.794Z,70.92
2018-02-14T08:04:53.797Z,70.97
2018-02-14T08:05:53.788Z,70.59
2018-02-14T08:06:53.790Z,70.63
2018-02-14T08:07:53.811Z,70.73
2018-02-14T08:08:53.780Z,70.84
2018-02-14T08:09:54.120Z,70.76
2018-02-14T08:10:53.790Z,70.63
2018-02-14T08:11:53.790Z,70.37
2018-02-14T08:12:53.795Z,70.64
2018-02-14T08:13:53.793Z,70.3
2018-02-14T08:14:53.824Z,70.5
2018-02-14T08:15:53.796Z,70.44
2018-02-14T08:16:53.799Z,70.28
2018-02-14T08:17:53.802Z,70.37
2018-02-14T08:18:53.805Z,70.52
2018-02-14T08:19:53.803Z,70.54
2018-02-14T08:20:54.024Z,70.46
2018-02-14T08:21:53.808Z,70.28
2018-02-14T08:22:53.808Z,70.04
2018-02-14T08:23:53.817Z,70.11
2018-02-14T08:24:53.823Z,70.41
2018-02-14T08:25:53.838Z,70.13
2018-02-14T08:26:53.851Z,70.06
2018-02-14T08:27:53.830Z,69.44
2018-02-14T08:28:53.871Z,69.34
2018-02-14T08:29:53.828Z,69.96
2018-02-14T08:30:53.833Z,69.42
2018-02-14T08:31:53.875Z,69.12
2018-02-14T08:32:53.828Z,69.14
2018-02-14T08:33:53.830Z,69.3
2018-02-14T08:34:53.840Z,68.99
2018-02-14T08:35:53.839Z,69.03
2018-02-14T08:36:53.862Z,68.97
2018-02-14T08:37:53.883Z,69.17
2018-02-14T08:38:53.848Z,69.17
2018-02-14T08:39:53.846Z,68.87
2018-02-14T08:40:53.855Z,68.49
2018-02-14T08:41:53.857Z,68.72
2018-02-14T08:42:53.998Z,68.56
2018-02-14T08:43:53.858Z,68.3
2018-02-14T08:44:53.868Z,68.46
2018-02-14T08:45:53.864Z,68.56
2018-02-14T08:46:53.875Z,68.67
2018-02-14T08:47:54.066Z,68.26
2018-02-14T08:48:53.880Z,68.27
2018-02-14T08:49:53.876Z,67.77
2018-02-14T08:50:53.879Z,67.83
2018-02-14T08:51:53.876Z,68.25
2018-02-14T08:52:53.895Z,68.08
2018-02-14T08:53:53.909Z,68.26
2018-02-14T08:54:53.893Z,67.92
2018-02-14T08:55:53.886Z,68.09
2018-02-14T08:56:53.886Z,68.1
2018-02-14T08:57:53.930Z,68.1
2018-02-14T08:58:53.906Z,67.88
2018-02-14T08:59:53.890Z,67.82
2018-02-14T09:00:53.900Z,67.92
2018-02-14T09:01:53.903Z,67.81
2018-02-14T09:02:53.939Z,67.97
2018-02-14T09:03:53.905Z,67.93
2018-02-14T09:04:53.910Z,67.96
2018-02-14T09:05:53.921Z,67.93
2018-02-14T09:06:53.915Z,68.09
2018-02-14T09:07:53.913Z,68.03
2018-02-14T09:08:53.943Z,67.78
2018-02-14T09:09:53.927Z,68.01
2018-02-14T09:10:53.932Z,67.86
2018-02-14T09:11:53.936Z,67.57
2018-02-14T09:12:53.941Z,67.15
2018-02-14T09:13:53.989Z,67.53
2018-02-14T09:14:53.950Z,67.77
2018-02-14T09:15:53.943Z,67.38
2018-02-14T09:16:53.992Z,67.59
2018-02-14T09:17:53.962Z,67.41
2018-02-14T09:18:53.978Z,67.17
2018-02-14T09:19:53.988Z,67.22
2018-02-14T09:20:53.964Z,67.17
2018-02-14T09:21:53.982Z,66.27
2018-02-14T09:22:53.976Z,66.65
2018-02-14T09:23:53.980Z,66.47
2018-02-14T09:24:54.009Z,66.43
2018-02-14T09:25:54.435Z,66.25
2018-02-14T09:26:53.989Z,66.12
2018-02-14T09:27:53.988Z,66.25
2018-02-14T09:28:53.989Z,66.11
2018-02-14T09:29:54.020Z,66.26
2018-02-14T09:30:54.003Z,65.91
2018-02-14T09:31:54.025Z,66.4
2018-02-14T09:32:54.006Z,66.11
2018-02-14T09:33:54.008Z,66.16
2018-02-14T09:34:54.294Z,66.06
2018-02-14T09:35:54.011Z,65.57
2018-02-14T09:36:54.026Z,65.32
2018-02-14T09:37:54.026Z,65.44
2018-02-14T09:38:54.034Z,65.22
2018-02-14T09:39:54.040Z,65.51
2018-02-14T09:40:54.036Z,65.81
2018-02-14T09:41:54.034Z,65.61
2018-02-14T09:42:54.043Z,65.5
2018-02-14T09:43:54.039Z,65.07
2018-02-14T09:44:54.055Z,65.37
2018-02-14T09:45:54.049Z,65.11
2018-02-14T09:46:54.038Z,65.11
2018-02-14T09:47:54.042Z,64.98
2018-02-14T09:48:54.042Z,64.86
2018-02-14T09:49:54.045Z,64.72
2018-02-14T09:50:54.046Z,65.04
2018-02-14T09:51:54.050Z,64.49
2018-02-14T09:52:54.060Z,64.13
2018-02-14T09:53:54.063Z,64.35
2018-02-14T09:54:54.103Z,64.68
2018-02-14T09:55:54.075Z,64.58
2018-02-14T09:56:54.085Z,64.27
2018-02-14T09:57:54.081Z,64.33
2018-02-14T09:58:54.089Z,64.23
2018-02-14T09:59:54.119Z,64.05
2018-02-14T10:00:54.104Z,64.25
2018-02-14T10:01:54.107Z,63.9
2018-02-14T10:02:54.105Z,64.24
2018-02-14T10:03:54.141Z,64.5
2018-02-14T10:04:54.115Z,64.03
2018-02-14T10:05:54.112Z,63.89
2018-02-14T10:06:54.119Z,63.72
2018-02-14T10:07:54.126Z,64.11
2018-02-14T10:08:54.146Z,64.29
2018-02-14T10:09:54.155Z,63.69
2018-02-14T10:10:54.128Z,63.31
2018-02-14T10:11:54.143Z,63.12
2018-02-14T10:12:54.144Z,62.88
2018-02-14T10:13:54.176Z,63.09
2018-02-14T10:14:54.189Z,63.15
2018-02-14T10:15:54.159Z,62.8
2018-02-14T10:16:54.167Z,62.64
2018-02-14T10:17:54.181Z,62.72
2018-02-14T10:18:54.196Z,62.86
2018-02-14T10:19:54.172Z,62.79
2018-02-14T10:20:54.178Z,62.59
2018-02-14T10:21:54.182Z,62.58
2018-02-14T10:22:54.192Z,62.44
2018-02-14T10:23:54.215Z,62.33
2018-02-14T10:24:54.230Z,62.35
2018-02-14T10:25:54.197Z,62.07
2018-02-14T10:26:54.200Z,62.13
2018-02-14T10:27:54.205Z,62.03
2018-02-14T10:28:54.263Z,62.28
2018-02-14T10:29:54.217Z,61.69
2018-02-14T10:30:54.216Z,61.62
2018-02-14T10:31:54.217Z,61.6
2018-02-14T10:32:54.219Z,60.47
2018-02-14T10:33:54.239Z,60.42
2018-02-14T10:34:54.239Z,60.77
2018-02-14T10:35:54.248Z,60.86
2018-02-14T10:36:54.219Z,60.49
2018-02-14T10:37:54.219Z,60.7
2018-02-14T10:38:54.238Z,60.69
2018-02-14T10:39:54.253Z,61.27
2018-02-14T10:40:54.233Z,60.4
2018-02-14T10:41:54.242Z,60.53
2018-02-14T10:42:54.248Z,60.16
2018-02-14T10:43:54.283Z,60.4
2018-02-14T10:44:54.269Z,59.66
2018-02-14T10:45:54.277Z,59.61
2018-02-14T10:46:54.261Z,59.67
2018-02-14T10:47:54.263Z,60
2018-02-14T10:48:54.265Z,60.18
2018-02-14T10:49:54.278Z,59.52
2018-02-14T10:50:54.613Z,60.03
2018-02-14T10:51:54.324Z,59.64
2018-02-14T10:52:54.385Z,59.26
2018-02-14T10:53:54.271Z,59.46
2018-02-14T10:54:54.275Z,59.28
2018-02-14T10:55:54.309Z,59.1
2018-02-14T10:56:54.543Z,59.17
2018-02-14T10:57:54.293Z,59.4
2018-02-14T10:58:54.298Z,59.5
2018-02-14T10:59:54.369Z,58.66
2018-02-14T11:00:56.956Z,58.69
2018-02-14T11:01:55.502Z,58.13
2018-02-14T11:02:54.390Z,58.9
2018-02-14T11:03:54.341Z,58.96
2018-02-14T11:04:54.315Z,58.63
2018-02-14T11:05:54.323Z,58.87
2018-02-14T11:06:54.323Z,59.04
2018-02-14T11:07:54.318Z,58.63
2018-02-14T11:08:54.316Z,58.34
2018-02-14T11:09:54.345Z,57.96
2018-02-14T11:10:54.334Z,57.88
2018-02-14T11:11:54.368Z,57.74
2018-02-14T11:12:54.335Z,57.77
2018-02-14T11:13:54.344Z,57.98
2018-02-14T11:14:54.346Z,57.72
2018-02-14T11:15:54.336Z,57.86
2018-02-14T11:16:54.357Z,57.61
2018-02-14T11:17:54.333Z,58.04
2018-02-14T11:18:54.342Z,57.81
2018-02-14T11:19:54.338Z,57.47
2018-02-14T11:20:54.341Z,57.35
2018-02-14T11:21:54.362Z,56.98
2018-02-14T11:22:54.346Z,56.81
2018-02-14T11:23:54.357Z,56.8
2018-02-14T11:24:54.358Z,57.47
2018-02-14T11:25:54.352Z,56.88
2018-02-14T11:26:54.352Z,56.49
2018-02-14T11:27:54.353Z,56.2
2018-02-14T11:28:54.366Z,56.68
2018-02-14T11:45:29.455Z,54.18
2018-02-14T11:46:29.391Z,54.33
2018-02-14T11:47:29.389Z,55.17
2018-02-14T11:48:29.414Z,55.19
2018-02-14T11:49:29.394Z,55.5
2018-02-14T11:50:29.387Z,54.95
2018-02-14T11:51:29.383Z,54.33
2018-02-14T11:52:29.386Z,54.12
2018-02-14T11:53:29.417Z,53.5
2018-02-14T11:54:29.397Z,54
2018-02-14T11:55:29.400Z,54.36
2018-02-14T11:56:33.026Z,52.59
2018-02-14T11:57:33.050Z,53.42
2018-02-14T11:58:34.865Z,53.2
2018-02-14T11:59:35.674Z,53.24
2018-02-14T12:00:34.053Z,53.99
2018-02-14T12:01:35.490Z,51.99
2018-02-14T12:02:33.847Z,51.39
2018-02-14T12:03:33.076Z,51.82
2018-02-14T12:04:33.069Z,52.01
2018-02-14T12:05:33.066Z,51.87
2018-02-14T12:06:33.076Z,51.04
2018-02-14T12:07:33.087Z,51.45
2018-02-14T12:08:33.088Z,51.75
2018-02-14T12:09:33.090Z,51.68
2018-02-14T12:10:33.092Z,51.12
2018-02-14T12:11:33.101Z,51.97
2018-02-14T12:12:33.099Z,51.9
2018-02-14T12:13:33.100Z,51.28
2018-02-14T12:14:33.109Z,51.11
2018-02-14T12:15:33.123Z,51.62
2018-02-14T12:16:33.117Z,51.25
2018-02-14T12:17:33.126Z,50.99
2018-02-14T12:18:33.118Z,50.91
2018-02-14T12:19:33.122Z,51.28
2018-02-14T12:20:33.117Z,50.59
2018-02-14T12:21:33.122Z,50.06
2018-02-14T12:31:11.884Z,51.03
2018-02-14T12:32:11.874Z,49.34
2018-02-14T12:33:12.027Z,49.96
2018-02-14T12:34:11.856Z,49.57
2018-02-14T12:35:11.872Z,49.4
2018-02-14T12:38:24.054Z,49.26
2018-02-14T12:39:12.042Z,49.77
2018-02-14T12:40:12.064Z,49.96
2018-02-14T12:41:12.067Z,49.83
2018-02-14T12:42:12.184Z,49.8
2018-02-14T12:43:12.082Z,50.02
2018-02-14T12:44:11.989Z,49.5
2018-02-14T12:45:12.106Z,49.48
2018-02-14T12:46:12.065Z,48.56
2018-02-14T12:47:12.075Z,49.23
2018-02-14T12:48:12.085Z,49.89
2018-02-14T12:49:12.064Z,50.41
2018-02-14T12:50:12.056Z,50.25
2018-02-14T12:51:12.065Z,49.59
2018-02-14T12:52:12.098Z,49.15
2018-02-14T12:53:12.349Z,48.75
2018-02-14T12:54:12.089Z,48.92
2018-02-14T12:55:12.074Z,49.42
2018-02-14T12:56:12.085Z,49.04
2018-02-14T12:57:12.176Z,49.46
2018-02-14T12:58:12.080Z,49.52
2018-02-14T12:59:12.088Z,50.24
2018-02-14T13:00:12.199Z,50.4
2018-02-14T13:01:12.098Z,50.2
2018-02-14T13:02:12.263Z,49.82
2018-02-14T13:03:12.102Z,50.25
2018-02-14T13:04:12.102Z,49.88
2018-02-14T13:05:12.093Z,49.96
2018-02-14T13:06:12.102Z,49.53
2018-02-14T13:07:12.297Z,49.14
2018-02-14T13:08:12.129Z,49.73
2018-02-14T13:09:12.113Z,50.01
2018-02-14T13:10:12.106Z,49.08
2018-02-14T13:11:12.103Z,49.15
2018-02-14T13:12:12.113Z,49.05
2018-02-14T13:13:12.120Z,48.83
2018-02-14T13:14:12.120Z,48.54
2018-02-14T13:15:12.292Z,48.82
2018-02-14T13:16:12.119Z,49.03
2018-02-14T13:17:12.125Z,48.7
2018-02-14T13:18:12.135Z,49.67
2018-02-14T13:19:12.140Z,48.8
2018-02-14T13:20:12.160Z,47.6
2018-02-14T13:21:12.160Z,48.31
2018-02-14T13:22:12.135Z,48.06
2018-02-14T13:23:12.145Z,48.13
2018-02-14T13:24:12.172Z,49.05
2018-02-14T13:25:12.178Z,48.42
2018-02-14T13:26:12.201Z,48.09